createdAt,value
2023-11-24T00:00:56.681Z,7.95
2023-11-24T00:03:25.916Z,7.07
2023-11-24T00:05:54.451Z,9.45
2023-11-24T00:08:24.394Z,7.13
2023-11-24T00:10:52.812Z,7.72
2023-11-24T00:13:24.252Z,7.07
2023-11-24T00:15:54.021Z,10.43
2023-11-24T00:21:49.030Z,8.82
2023-11-24T00:24:48.196Z,6.90
2023-11-24T00:31:07.648Z,7.20
2023-11-24T00:33:36.408Z,7.13
2023-11-24T00:36:06.871Z,6.70
2023-11-24T00:38:38.058Z,9.27
2023-11-24T00:41:16.592Z,8.40
2023-11-24T00:43:47.019Z,6.88
2023-11-24T00:46:18.780Z,7.95
2023-11-24T00:48:47.196Z,8.55
2023-11-24T00:51:22.622Z,8.43
2023-11-24T00:53:52.682Z,9.05
2023-11-24T00:57:19.071Z,8.80
2023-11-24T01:00:04.449Z,8.35
2023-11-24T01:06:07.202Z,8.23
2023-11-24T01:08:35.508Z,7.35
2023-11-24T01:11:03.656Z,9.60
2023-11-24T01:13:34.414Z,8.45
2023-11-24T01:16:05.520Z,6.40
2023-11-24T01:18:39.400Z,7.57
2023-11-24T01:21:10.743Z,7.95
2023-11-24T01:23:42.053Z,8.18
2023-11-24T01:26:13.059Z,6.28
2023-11-24T01:32:03.359Z,6.13
2023-11-24T01:35:05.649Z,5.50
2023-11-24T01:41:15.640Z,4.40
2023-11-24T01:44:16.806Z,6.47
2023-11-24T01:46:48.160Z,7.07
2023-11-24T01:49:21.018Z,5.53
2023-11-24T01:51:50.096Z,6.70
2023-11-24T01:54:20.710Z,6.38
2023-11-24T01:56:49.260Z,6.03
2023-11-24T01:59:20.657Z,6.22
2023-11-24T02:01:52.688Z,6.05
2023-11-24T02:04:48.659Z,6.70
2023-11-24T02:07:16.941Z,5.43
2023-11-24T02:10:04.918Z,7.50
2023-11-24T02:12:36.991Z,8.20
2023-11-24T02:15:10.373Z,5.55
2023-11-24T02:17:46.104Z,6.05
2023-11-24T02:20:16.729Z,7.25
2023-11-24T02:22:46.322Z,9.68
2023-11-24T02:25:16.689Z,6.63
2023-11-24T02:27:45.396Z,6.93
2023-11-24T02:30:13.708Z,6.70
2023-11-24T02:32:41.861Z,6.20
2023-11-24T02:35:11.155Z,6.63
2023-11-24T02:37:42.555Z,5.28
2023-11-24T02:40:13.459Z,5.47
2023-11-24T02:45:57.455Z,4.88
2023-11-24T02:48:58.639Z,5.32
2023-11-24T02:51:26.920Z,5.22
2023-11-24T02:55:03.629Z,7.05
2023-11-24T02:57:34.256Z,6.28
2023-11-24T03:01:17.664Z,5.50
2023-11-24T03:03:46.186Z,6.97
2023-11-24T03:06:19.369Z,6.00
2023-11-24T03:15:49.028Z,4.82
2023-11-24T03:18:20.837Z,5.57
2023-11-24T03:20:51.640Z,7.60
2023-11-24T03:23:51.322Z,5.47
2023-11-24T03:27:16.956Z,4.65
2023-11-24T03:30:45.819Z,5.60
2023-11-24T03:33:27.758Z,5.72
2023-11-24T03:37:02.330Z,6.35
2023-11-24T03:42:45.952Z,5.28
2023-11-24T03:45:17.440Z,6.70
2023-11-24T03:47:46.404Z,9.38
2023-11-24T03:50:29.110Z,7.15
2023-11-24T03:53:21.230Z,6.10
2023-11-24T03:55:50.581Z,6.43
2023-11-24T03:58:19.516Z,4.95
2023-11-24T04:00:57.368Z,5.43
2023-11-24T04:03:31.479Z,7.40
2023-11-24T04:06:10.619Z,6.32
2023-11-24T04:09:28.136Z,4.50
2023-11-24T04:12:18.279Z,4.93
2023-11-24T04:14:46.883Z,4.68
2023-11-24T04:20:36.312Z,7.03
2023-11-24T04:23:14.912Z,4.72
2023-11-24T04:23:20.625Z,4.55
2023-11-24T04:25:49.999Z,4.55
2023-11-24T04:28:18.953Z,3.75
2023-11-24T04:31:10.835Z,3.60
2023-11-24T04:33:47.951Z,4.95
2023-11-24T04:45:16.254Z,8.48
2023-11-24T04:48:04.757Z,6.45
2023-11-24T04:50:43.904Z,6.10
2023-11-24T04:53:17.403Z,5.28
2023-11-24T05:02:52.588Z,6.45
2023-11-24T05:05:22.672Z,3.88
2023-11-24T05:12:10.304Z,3.38
2023-11-24T05:15:26.781Z,6.22
2023-11-24T05:17:59.198Z,6.45
2023-11-24T05:20:27.729Z,4.80
2023-11-24T05:23:17.130Z,7.57
2023-11-24T05:25:46.023Z,4.93
2023-11-24T05:28:18.129Z,4.68
2023-11-24T05:30:47.062Z,4.95
2023-11-24T05:33:17.001Z,3.92
2023-11-24T05:35:45.580Z,5.28
2023-11-24T05:38:15.512Z,4.45
2023-11-24T05:40:47.662Z,5.30
2023-11-24T05:43:16.361Z,5.55
2023-11-24T05:45:44.970Z,5.68
2023-11-24T05:48:24.335Z,5.45
2023-11-24T05:51:01.934Z,6.40
2023-11-24T05:56:43.290Z,5.60
2023-11-24T05:59:13.253Z,6.00
2023-11-24T06:01:43.776Z,4.85
2023-11-24T06:04:16.963Z,6.40
2023-11-24T06:06:48.906Z,4.75
2023-11-24T06:09:17.262Z,4.60
2023-11-24T06:11:45.752Z,5.55
2023-11-24T06:14:14.432Z,6.32
2023-11-24T06:16:43.141Z,7.28
2023-11-24T06:19:13.406Z,5.57
2023-11-24T06:21:42.116Z,5.47
2023-11-24T06:24:19.593Z,11.93
2023-11-24T06:26:48.459Z,5.53
2023-11-24T06:29:37.464Z,5.35
2023-11-24T06:32:07.282Z,5.45
2023-11-24T06:34:37.060Z,6.50
2023-11-24T06:37:05.795Z,6.43
2023-11-24T06:39:34.242Z,6.45
2023-11-24T06:42:22.792Z,6.57
2023-11-24T06:45:00.422Z,8.93
2023-11-24T06:50:57.234Z,8.02
2023-11-24T06:53:39.593Z,6.28
2023-11-24T06:56:10.890Z,7.47
2023-11-24T06:58:39.198Z,5.70
2023-11-24T07:01:07.291Z,5.53
2023-11-24T07:03:35.828Z,5.22
2023-11-24T07:06:07.981Z,4.57
2023-11-24T07:08:36.777Z,6.47
2023-11-24T07:11:06.150Z,6.82
2023-11-24T07:13:34.191Z,7.05
2023-11-24T07:16:02.258Z,4.43
2023-11-24T07:18:30.471Z,8.02
2023-11-24T07:21:02.022Z,5.93
2023-11-24T07:23:31.673Z,7.50
2023-11-24T07:25:59.780Z,5.63
2023-11-24T07:28:28.033Z,4.85
2023-11-24T07:30:56.034Z,5.93
2023-11-24T07:33:25.494Z,4.95
2023-11-24T07:35:53.453Z,5.93
2023-11-24T07:38:21.414Z,5.75
2023-11-24T07:40:50.814Z,8.80
2023-11-24T07:43:18.950Z,5.78
2023-11-24T07:45:50.341Z,5.65
2023-11-24T07:48:19.148Z,6.05
2023-11-24T07:50:46.984Z,4.95
2023-11-24T07:53:15.735Z,6.53
2023-11-24T07:55:44.059Z,4.85
2023-11-24T07:58:13.673Z,5.68
2023-11-24T08:00:41.672Z,7.65
2023-11-24T08:03:10.001Z,6.07
2023-11-24T08:05:38.081Z,5.93
2023-11-24T08:08:06.832Z,7.35
2023-11-24T08:10:34.849Z,6.35
2023-11-24T08:13:03.669Z,6.25
2023-11-24T08:15:34.199Z,4.85
2023-11-24T08:18:02.592Z,6.38
2023-11-24T08:20:30.675Z,8.00
2023-11-24T08:22:59.816Z,6.72
2023-11-24T08:25:28.144Z,5.88
2023-11-24T08:27:58.330Z,6.63
2023-11-24T08:30:26.800Z,5.85
2023-11-24T08:32:56.337Z,7.15
2023-11-24T08:35:24.664Z,6.55
2023-11-24T08:37:53.152Z,5.57
2023-11-24T08:40:23.090Z,6.15
2023-11-24T08:42:52.132Z,6.80
2023-11-24T08:45:20.371Z,8.38
2023-11-24T08:47:50.026Z,8.00
2023-11-24T08:50:19.914Z,6.30
2023-11-24T08:52:51.725Z,4.43
2023-11-24T08:55:24.297Z,7.65
2023-11-24T08:57:52.985Z,5.75
2023-11-24T09:00:21.599Z,4.32
2023-11-24T09:02:50.557Z,7.88
2023-11-24T09:05:28.515Z,5.15
2023-11-24T09:08:03.788Z,10.73
2023-11-24T09:10:37.874Z,9.50
2023-11-24T09:13:17.171Z,9.05
2023-11-24T09:16:00.444Z,8.07
2023-11-24T09:18:28.536Z,7.95
2023-11-24T09:21:01.175Z,8.50
2023-11-24T09:23:29.775Z,7.20
2023-11-24T09:26:18.228Z,7.75
2023-11-24T09:28:46.503Z,7.65
2023-11-24T09:31:17.582Z,6.57
2023-11-24T09:33:46.123Z,7.20
2023-11-24T09:36:16.009Z,7.13
2023-11-24T09:38:48.177Z,7.18
2023-11-24T09:41:18.747Z,9.73
2023-11-24T09:43:46.980Z,7.40
2023-11-24T09:46:15.557Z,7.30
2023-11-24T09:48:44.866Z,7.80
2023-11-24T09:51:18.446Z,10.38
2023-11-24T09:53:47.315Z,10.70
2023-11-24T09:56:15.574Z,9.50
2023-11-24T09:58:43.867Z,9.40
2023-11-24T10:01:25.854Z,11.10
2023-11-24T10:04:00.458Z,7.28
2023-11-24T10:07:07.298Z,6.97
2023-11-24T10:16:16.931Z,7.25
2023-11-24T10:18:45.076Z,8.10
2023-11-24T10:21:23.797Z,7.45
2023-11-24T10:23:59.964Z,7.05
2023-11-24T10:26:28.396Z,7.55
2023-11-24T10:28:59.015Z,8.88
2023-11-24T10:31:32.168Z,6.78
2023-11-24T10:34:01.456Z,6.35
2023-11-24T10:36:31.957Z,6.50
2023-11-24T10:39:04.172Z,7.97
2023-11-24T10:41:41.932Z,5.78
2023-11-24T10:44:15.864Z,6.60
2023-11-24T10:46:49.357Z,5.57
2023-11-24T10:49:26.588Z,6.53
2023-11-24T10:52:03.598Z,5.78
2023-11-24T10:54:43.699Z,5.80
2023-11-24T10:57:26.825Z,3.95
2023-11-24T10:59:58.677Z,4.40
2023-11-24T11:02:31.090Z,7.22
2023-11-24T11:05:06.640Z,5.07
2023-11-24T11:07:54.760Z,5.82
2023-11-24T11:10:28.103Z,5.10
2023-11-24T11:13:05.424Z,5.78
2023-11-24T11:15:38.003Z,8.20
2023-11-24T11:18:10.749Z,6.50
2023-11-24T11:20:39.646Z,6.45
2023-11-24T11:23:13.542Z,5.70
2023-11-24T11:26:06.076Z,7.63
2023-11-24T11:29:07.542Z,6.18
2023-11-24T11:31:40.079Z,6.97
2023-11-24T11:39:14.093Z,6.55
2023-11-24T11:46:18.786Z,8.48
2023-11-24T12:16:06.905Z,8.05
2023-11-24T12:19:05.813Z,6.47
2023-11-24T12:22:40.858Z,8.50
2023-11-24T12:33:57.193Z,5.47
2023-11-24T12:41:42.362Z,3.13
2023-11-24T12:53:28.613Z,8.38
2023-11-24T12:57:13.176Z,4.15
2023-11-24T13:05:11.111Z,5.25
2023-11-24T13:13:45.476Z,3.92
2023-11-24T13:33:22.503Z,5.63
2023-11-24T13:41:18.843Z,6.53
2023-11-24T13:53:59.513Z,5.70
2023-11-24T14:02:01.426Z,7.15
2023-11-24T14:18:03.577Z,8.48
2023-11-24T14:21:18.602Z,7.88
2023-11-24T14:24:17.230Z,4.25
2023-11-24T14:26:50.767Z,4.82
2023-11-24T14:29:43.662Z,8.15
2023-11-24T14:32:19.370Z,9.95
2023-11-24T14:35:22.214Z,7.88
2023-11-24T14:46:43.611Z,7.35
2023-11-24T15:01:43.473Z,3.70
2023-11-24T15:23:26.990Z,4.30
2023-11-24T16:04:57.761Z,12.38
2023-11-24T16:07:35.970Z,13.90
2023-11-24T16:10:31.244Z,13.15
2023-11-24T16:13:14.088Z,14.63
2023-11-24T16:16:08.367Z,45.38
2023-11-24T16:18:55.605Z,40.92
2023-11-24T16:21:26.748Z,9.85
2023-11-24T16:23:59.272Z,7.30
2023-11-24T16:27:05.376Z,8.85
2023-11-24T16:29:34.666Z,11.45
2023-11-24T16:32:40.846Z,8.73
2023-11-24T16:35:13.206Z,6.75
2023-11-24T16:38:18.127Z,12.27
2023-11-24T16:40:47.555Z,8.52
2023-11-24T16:43:21.857Z,8.52
2023-11-24T16:45:51.501Z,7.65
2023-11-24T16:48:21.771Z,6.22
2023-11-24T16:50:53.296Z,9.43
2023-11-24T16:53:29.193Z,6.50
2023-11-24T16:55:57.801Z,7.20
2023-11-24T16:58:35.422Z,11.07
2023-11-24T17:01:09.504Z,9.23
2023-11-24T17:03:46.062Z,8.32
2023-11-24T17:07:05.309Z,10.65
2023-11-24T17:09:35.094Z,18.92
2023-11-24T17:12:27.723Z,26.35
2023-11-24T17:15:33.098Z,27.45
2023-11-24T17:18:02.831Z,26.15
2023-11-24T17:20:30.925Z,27.25
2023-11-24T17:22:58.938Z,22.95
2023-11-24T17:25:37.415Z,29.65
2023-11-24T17:29:03.534Z,23.38
2023-11-24T17:31:35.292Z,25.10
2023-11-24T17:34:03.633Z,23.42
2023-11-24T17:36:31.860Z,20.88
2023-11-24T17:39:16.502Z,23.27
2023-11-24T17:41:46.222Z,19.60
2023-11-24T17:44:17.440Z,21.50
2023-11-24T17:46:47.182Z,23.95
2023-11-24T17:49:42.482Z,23.25
2023-11-24T17:52:16.686Z,21.70
2023-11-24T17:55:06.768Z,19.95
2023-11-24T17:57:49.940Z,62.22
2023-11-24T18:00:26.295Z,51.42
2023-11-24T18:03:55.966Z,36.72
2023-11-24T18:06:36.466Z,29.23
2023-11-24T18:13:37.174Z,20.13
2023-11-24T18:20:31.299Z,20.20
2023-11-24T18:27:11.186Z,20.23
2023-11-24T18:34:13.156Z,24.27
2023-11-24T18:41:07.133Z,25.17
2023-11-24T18:43:40.501Z,41.85
2023-11-24T18:46:13.470Z,38.88
2023-11-24T18:49:25.455Z,35.47
2023-11-24T18:51:58.222Z,37.75
2023-11-24T19:02:54.709Z,39.92
2023-11-24T19:05:55.651Z,37.28
2023-11-24T19:08:27.566Z,28.70
2023-11-24T19:11:14.198Z,32.22
2023-11-24T19:14:45.368Z,30.70
2023-11-24T19:25:58.860Z,38.80
2023-11-24T19:32:53.430Z,37.38
2023-11-24T19:35:35.137Z,39.47
2023-11-24T19:42:41.498Z,36.13
2023-11-24T19:46:20.454Z,35.67
2023-11-24T19:49:20.448Z,38.72
2023-11-24T19:52:01.901Z,41.22
2023-11-24T19:54:30.580Z,41.88
2023-11-24T19:57:22.330Z,40.67
2023-11-24T20:00:13.457Z,38.08
2023-11-24T20:02:48.785Z,36.90
2023-11-24T20:09:07.370Z,30.23
2023-11-24T20:12:04.817Z,26.33
2023-11-24T20:14:34.575Z,28.58
2023-11-24T20:17:56.687Z,23.10
2023-11-24T20:48:46.143Z,19.58
2023-11-24T20:51:34.230Z,20.85
2023-11-24T20:54:04.970Z,22.25
2023-11-24T20:56:34.202Z,23.63
2023-11-24T20:59:29.596Z,26.83
2023-11-24T21:01:58.606Z,26.60
2023-11-24T21:04:27.280Z,28.23
2023-11-24T21:06:59.149Z,28.40
2023-11-24T21:09:29.517Z,25.60
2023-11-24T21:11:58.981Z,19.70
2023-11-24T21:14:28.873Z,29.08
2023-11-24T21:16:57.932Z,23.90
2023-11-24T21:19:26.802Z,25.27
2023-11-24T21:21:56.611Z,24.38
2023-11-24T21:24:26.138Z,27.63
2023-11-24T21:26:54.511Z,25.52
2023-11-24T21:29:23.756Z,19.88
2023-11-24T21:31:52.065Z,24.60
2023-11-24T21:34:20.406Z,31.17
2023-11-24T21:36:48.818Z,26.75
2023-11-24T21:39:19.123Z,27.67
2023-11-24T21:41:53.398Z,24.55
2023-11-24T21:48:11.280Z,21.55
2023-11-24T21:50:40.297Z,20.95
2023-11-24T21:53:29.034Z,21.55
2023-11-24T22:00:19.617Z,18.20
2023-11-24T22:45:03.635Z,15.82
2023-11-24T22:51:32.329Z,17.73
2023-11-24T22:58:20.020Z,16.00
2023-11-24T23:10:02.732Z,16.73
2023-11-24T23:12:31.642Z,15.88
2023-11-24T23:18:22.182Z,16.57
2023-11-24T23:20:58.995Z,15.93
2023-11-24T23:30:19.326Z,15.02
2023-11-24T23:41:24.496Z,14.77
2023-11-24T23:45:15.694Z,14.38
2023-11-24T23:51:32.136Z,17.40
2023-11-24T23:54:06.586Z,15.02
2023-11-24T23:56:53.687Z,16.13
